Time;durP1;ratioP1;P1;durP2;ratioP2;P2;SDS_P1;SDS_P2;PMS_P1;PMS_P2;Temp;Humidity;BMP_temperature;BMP_pressure;BME280_temperature;BME280_humidity;BME280_pressure;Samples;Min_cycle;Max_cycle;Signal;HPM_P1;HPM_P2
2022/06/27 00:01:52;;;;;;;68.07;62.97;;;;;;;;;;5096176;28;20427;-75
2022/06/27 00:04:19;;;;;;;70.67;65.77;;;;;;;;;;5096485;28;20442;-74
2022/06/27 00:06:48;;;;;;;71.53;66.10;;;;;;;;;;5096368;28;20441;-75
2022/06/27 00:09:16;;;;;;;67.17;62.30;;;;;;;;;;5096341;28;20443;-74
2022/06/27 00:11:43;;;;;;;67.43;62.70;;;;;;;;;;5096370;28;20423;-75
2022/06/27 00:14:10;;;;;;;66.43;62.20;;;;;;;;;;5095988;28;20424;-74
2022/06/27 00:16:38;;;;;;;66.73;62.30;;;;;;;;;;5096264;28;20419;-74
2022/06/27 00:19:05;;;;;;;62.40;58.13;;;;;;;;;;5095783;28;20443;-75
2022/06/27 00:21:32;;;;;;;69.23;64.73;;;;;;;;;;5095874;28;20972;-74
2022/06/27 00:24:01;;;;;;;67.80;63.00;;;;;;;;;;5096180;28;20461;-74
2022/06/27 00:26:28;;;;;;;69.93;65.50;;;;;;;;;;5095800;28;20437;-74
2022/06/27 00:28:56;;;;;;;67.70;63.43;;;;;;;;;;5095703;28;20433;-74
2022/06/27 00:31:23;;;;;;;72.10;67.07;;;;;;;;;;5095522;28;20451;-74
2022/06/27 00:33:51;;;;;;;67.43;63.13;;;;;;;;;;5095957;28;20419;-74
2022/06/27 00:36:18;;;;;;;71.77;67.23;;;;;;;;;;5095355;28;20458;-75
2022/06/27 00:38:45;;;;;;;76.50;71.30;;;;;;;;;;5095538;28;20452;-74
2022/06/27 00:41:14;;;;;;;69.73;64.80;;;;;;;;;;5095443;28;20424;-74
2022/06/27 00:43:44;;;;;;;69.23;64.77;;;;;;;;;;5095426;28;20852;-74
2022/06/27 00:46:11;;;;;;;68.57;63.87;;;;;;;;;;5095479;28;20437;-74
2022/06/27 00:48:38;;;;;;;70.40;65.30;;;;;;;;;;5095224;28;20415;-74
2022/06/27 00:51:07;;;;;;;72.37;67.73;;;;;;;;;;5095210;28;21002;-75
2022/06/27 00:53:34;;;;;;;70.77;65.70;;;;;;;;;;5095267;28;20870;-75
2022/06/27 00:56:02;;;;;;;65.37;61.00;;;;;;;;;;5095070;28;20803;-74
2022/06/27 00:58:31;;;;;;;74.33;68.73;;;;;;;;;;5095103;28;20412;-75
2022/06/27 01:00:58;;;;;;;68.03;63.43;;;;;;;;;;5093722;28;21000;-74
2022/06/27 01:03:25;;;;;;;66.70;62.03;;;;;;;;;;5095383;28;20432;-75
2022/06/27 01:05:53;;;;;;;73.90;68.70;;;;;;;;;;5094974;28;20470;-75
2022/06/27 01:08:21;;;;;;;70.40;65.60;;;;;;;;;;5095054;28;20975;-74
2022/06/27 01:10:48;;;;;;;70.63;65.57;;;;;;;;;;5095021;28;20813;-74
2022/06/27 01:13:16;;;;;;;74.63;69.00;;;;;;;;;;5095198;28;20404;-75
2022/06/27 01:15:45;;;;;;;67.50;62.37;;;;;;;;;;5095145;28;20416;-74
2022/06/27 01:18:13;;;;;;;67.80;62.90;;;;;;;;;;5094990;28;20412;-74
2022/06/27 01:20:43;;;;;;;67.50;62.80;;;;;;;;;;5095033;28;21139;-74
2022/06/27 01:23:12;;;;;;;69.33;64.37;;;;;;;;;;5094601;28;20411;-74
2022/06/27 01:25:39;;;;;;;64.13;59.63;;;;;;;;;;5094687;28;20416;-74
2022/06/27 01:28:07;;;;;;;69.87;64.60;;;;;;;;;;5094501;28;20445;-74
2022/06/27 01:30:34;;;;;;;68.27;63.43;;;;;;;;;;5094467;28;20481;-74
2022/06/27 01:33:02;;;;;;;66.53;61.80;;;;;;;;;;5094433;28;20800;-74
2022/06/27 01:35:29;;;;;;;65.40;61.10;;;;;;;;;;5094373;28;20408;-74
2022/06/27 01:37:56;;;;;;;69.87;64.27;;;;;;;;;;5094142;28;20825;-74
2022/06/27 01:40:25;;;;;;;68.30;63.47;;;;;;;;;;5094150;28;20833;-74
2022/06/27 01:42:53;;;;;;;69.70;64.60;;;;;;;;;;5094348;28;20417;-74
2022/06/27 01:45:20;;;;;;;77.07;71.27;;;;;;;;;;5094472;28;20499;-74
2022/06/27 01:47:47;;;;;;;69.67;64.43;;;;;;;;;;5094329;28;20900;-75
2022/06/27 01:50:16;;;;;;;62.20;57.80;;;;;;;;;;5093854;28;20451;-74
2022/06/27 01:52:45;;;;;;;64.40;59.90;;;;;;;;;;5094345;28;20465;-74
2022/06/27 01:55:12;;;;;;;70.90;65.83;;;;;;;;;;5094291;28;20412;-74
2022/06/27 01:57:41;;;;;;;70.20;65.17;;;;;;;;;;5094139;28;20408;-75
2022/06/27 02:00:09;;;;;;;75.90;70.50;;;;;;;;;;5093984;28;20921;-74
2022/06/27 02:02:36;;;;;;;76.00;70.30;;;;;;;;;;5093931;28;20775;-74
2022/06/27 02:05:04;;;;;;;71.00;65.80;;;;;;;;;;5094043;28;20415;-74
2022/06/27 02:07:31;;;;;;;73.63;68.67;;;;;;;;;;5093615;28;20434;-74
2022/06/27 02:09:59;;;;;;;73.63;67.73;;;;;;;;;;5094039;28;20473;-74
2022/06/27 02:12:28;;;;;;;66.90;62.17;;;;;;;;;;5094032;28;20423;-74
2022/06/27 02:14:57;;;;;;;76.33;70.67;;;;;;;;;;5093959;28;20440;-74
2022/06/27 02:17:24;;;;;;;76.93;70.70;;;;;;;;;;5093610;28;20456;-74
2022/06/27 02:19:52;;;;;;;80.80;73.73;;;;;;;;;;5093843;28;20755;-74
2022/06/27 02:22:19;;;;;;;82.57;76.07;;;;;;;;;;5093727;28;20448;-74
2022/06/27 02:24:46;;;;;;;78.83;73.33;;;;;;;;;;5093840;28;20412;-75
2022/06/27 02:27:14;;;;;;;72.07;66.90;;;;;;;;;;5093803;28;20404;-75
2022/06/27 02:29:41;;;;;;;69.30;64.30;;;;;;;;;;5093399;28;20934;-74
2022/06/27 02:32:10;;;;;;;74.07;68.80;;;;;;;;;;5093602;28;20447;-74
2022/06/27 02:34:38;;;;;;;67.60;62.40;;;;;;;;;;5093602;28;20412;-74
2022/06/27 02:37:05;;;;;;;74.83;68.23;;;;;;;;;;5093448;28;20416;-74
2022/06/27 02:39:34;;;;;;;78.37;70.60;;;;;;;;;;5093493;28;20465;-74
2022/06/27 02:42:03;;;;;;;75.43;69.20;;;;;;;;;;5093166;28;20953;-75
2022/06/27 02:44:31;;;;;;;75.90;70.40;;;;;;;;;;5093249;28;20488;-74
2022/06/27 02:46:59;;;;;;;79.80;71.87;;;;;;;;;;5093375;28;20473;-74
2022/06/27 02:49:28;;;;;;;73.23;66.40;;;;;;;;;;5092997;28;20770;-74
2022/06/27 02:51:57;;;;;;;73.37;67.63;;;;;;;;;;5092895;28;20457;-74
2022/06/27 02:54:28;;;;;;;77.80;71.00;;;;;;;;;;5093383;28;20415;-74
2022/06/27 02:56:59;;;;;;;90.23;70.10;;;;;;;;;;5093241;28;20412;-74
2022/06/27 02:59:29;;;;;;;72.70;66.47;;;;;;;;;;5093126;28;20465;-74
2022/06/27 03:01:58;;;;;;;75.00;69.03;;;;;;;;;;5091958;28;20420;-74
2022/06/27 03:04:25;;;;;;;82.43;75.83;;;;;;;;;;5093159;28;20409;-74
2022/06/27 03:06:54;;;;;;;82.03;76.10;;;;;;;;;;5092645;28;20414;-75
2022/06/27 03:09:21;;;;;;;80.80;73.90;;;;;;;;;;5093050;28;20527;-74
2022/06/27 03:11:48;;;;;;;81.20;74.53;;;;;;;;;;5093023;28;20509;-74
2022/06/27 03:14:16;;;;;;;83.60;77.20;;;;;;;;;;5092724;28;20501;-74
2022/06/27 03:16:44;;;;;;;76.33;69.43;;;;;;;;;;5093277;28;20441;-74
2022/06/27 03:19:11;;;;;;;78.80;73.40;;;;;;;;;;5092553;28;20798;-74
2022/06/27 03:21:39;;;;;;;84.23;75.70;;;;;;;;;;5092642;28;20419;-74
2022/06/27 03:24:08;;;;;;;78.23;72.93;;;;;;;;;;5092864;28;20416;-74
2022/06/27 03:26:36;;;;;;;73.37;68.10;;;;;;;;;;5092990;28;20437;-74
2022/06/27 03:29:03;;;;;;;76.73;71.13;;;;;;;;;;5092552;28;20412;-74
2022/06/27 03:31:31;;;;;;;85.83;79.63;;;;;;;;;;5092559;28;20961;-74
2022/06/27 03:33:58;;;;;;;79.07;72.97;;;;;;;;;;5092763;28;20453;-74
2022/06/27 03:36:26;;;;;;;80.70;74.00;;;;;;;;;;5092398;28;20909;-74
2022/06/27 03:38:53;;;;;;;85.60;79.27;;;;;;;;;;5092895;28;20403;-74
2022/06/27 03:41:22;;;;;;;76.70;71.60;;;;;;;;;;5092748;28;20799;-74
2022/06/27 03:43:49;;;;;;;81.73;75.23;;;;;;;;;;5092597;28;20466;-74
2022/06/27 03:46:17;;;;;;;79.67;73.80;;;;;;;;;;5092697;28;20437;-74
2022/06/27 03:51:43;;;;;;;74.10;68.43;;;;;;;;;;5029979;28;21006;-75
2022/06/27 03:54:10;;;;;;;75.57;70.47;;;;;;;;;;5030118;28;20910;-75
2022/06/27 03:56:39;;;;;;;74.83;69.00;;;;;;;;;;5030003;28;20427;-74
2022/06/27 03:59:06;;;;;;;78.47;73.13;;;;;;;;;;5030143;28;20415;-74
2022/06/27 04:01:34;;;;;;;74.00;69.10;;;;;;;;;;5030038;28;20443;-76
2022/06/27 04:04:01;;;;;;;78.00;72.07;;;;;;;;;;5029960;28;20435;-76
2022/06/27 04:06:28;;;;;;;79.40;73.60;;;;;;;;;;5029797;28;20414;-76
2022/06/27 04:08:56;;;;;;;82.10;76.40;;;;;;;;;;5029907;28;20468;-76
2022/06/27 04:11:23;;;;;;;79.90;74.03;;;;;;;;;;5030114;28;20458;-76
2022/06/27 04:13:52;;;;;;;83.70;76.27;;;;;;;;;;5033864;28;20418;-76
2022/06/27 04:16:19;;;;;;;78.30;73.00;;;;;;;;;;5033594;28;20427;-76
2022/06/27 04:18:46;;;;;;;77.43;71.90;;;;;;;;;;5033548;28;20444;-75
2022/06/27 04:21:13;;;;;;;82.67;74.67;;;;;;;;;;5033381;28;20455;-76
2022/06/27 04:23:41;;;;;;;82.77;77.10;;;;;;;;;;5090876;28;20835;-76
2022/06/27 04:26:08;;;;;;;78.83;73.40;;;;;;;;;;5095768;28;20748;-75
2022/06/27 04:28:36;;;;;;;77.20;72.30;;;;;;;;;;5096036;28;20499;-75
2022/06/27 04:31:04;;;;;;;82.17;76.27;;;;;;;;;;5095652;28;20850;-75
2022/06/27 04:33:32;;;;;;;77.47;72.17;;;;;;;;;;5095576;28;20413;-75
2022/06/27 04:36:00;;;;;;;81.40;75.43;;;;;;;;;;5095897;28;20408;-75
2022/06/27 04:38:27;;;;;;;81.23;75.20;;;;;;;;;;5095699;28;20433;-75
2022/06/27 04:40:54;;;;;;;80.33;74.77;;;;;;;;;;5095519;28;20474;-75
2022/06/27 04:43:22;;;;;;;80.73;74.83;;;;;;;;;;5095545;28;20489;-74
2022/06/27 04:45:52;;;;;;;79.20;73.60;;;;;;;;;;5095786;28;20443;-74
2022/06/27 04:48:21;;;;;;;79.90;74.13;;;;;;;;;;5094316;28;20899;-74
2022/06/27 04:50:49;;;;;;;78.67;72.90;;;;;;;;;;5095592;28;20441;-75
2022/06/27 04:53:18;;;;;;;78.07;72.47;;;;;;;;;;5095275;28;20412;-75
2022/06/27 04:55:45;;;;;;;82.33;75.57;;;;;;;;;;5095150;28;20916;-74
2022/06/27 04:58:12;;;;;;;80.20;74.13;;;;;;;;;;5095374;28;20445;-74
2022/06/27 05:00:40;;;;;;;83.03;76.57;;;;;;;;;;5095437;28;20824;-74
2022/06/27 05:03:07;;;;;;;86.70;80.00;;;;;;;;;;5095454;28;20419;-75
2022/06/27 05:05:36;;;;;;;82.83;76.63;;;;;;;;;;5095269;28;20471;-75
2022/06/27 05:08:03;;;;;;;90.60;83.40;;;;;;;;;;5094999;28;20471;-75
2022/06/27 05:10:30;;;;;;;88.67;81.73;;;;;;;;;;5095255;28;20414;-75
2022/06/27 05:12:59;;;;;;;90.80;83.37;;;;;;;;;;5094874;28;20459;-75
2022/06/27 05:15:27;;;;;;;89.67;83.10;;;;;;;;;;5095170;28;20446;-74
2022/06/27 05:17:54;;;;;;;88.97;81.67;;;;;;;;;;5095058;28;20412;-74
2022/06/27 05:20:22;;;;;;;87.73;80.90;;;;;;;;;;5095304;28;20420;-74
2022/06/27 05:22:51;;;;;;;94.03;86.57;;;;;;;;;;5094670;28;20446;-75
2022/06/27 05:25:18;;;;;;;91.93;84.20;;;;;;;;;;5093886;28;20420;-75
2022/06/27 05:27:45;;;;;;;92.53;84.27;;;;;;;;;;5094861;28;20451;-75
2022/06/27 05:30:13;;;;;;;91.30;82.23;;;;;;;;;;5095096;28;20408;-75
2022/06/27 05:32:41;;;;;;;90.93;83.27;;;;;;;;;;5094411;28;20503;-75
2022/06/27 05:35:08;;;;;;;86.87;79.20;;;;;;;;;;5094769;28;20402;-75
2022/06/27 05:37:38;;;;;;;89.63;82.23;;;;;;;;;;5094506;28;20448;-75
2022/06/27 05:40:09;;;;;;;82.63;74.60;;;;;;;;;;5094665;28;20561;-75
2022/06/27 05:42:36;;;;;;;86.60;79.87;;;;;;;;;;5094536;28;20416;-75
2022/06/27 05:45:04;;;;;;;90.73;82.93;;;;;;;;;;5094130;28;20477;-75
2022/06/27 05:47:32;;;;;;;87.37;79.23;;;;;;;;;;5094482;28;20501;-75
2022/06/27 05:50:02;;;;;;;92.83;84.60;;;;;;;;;;5094165;28;20405;-75
2022/06/27 05:52:30;;;;;;;93.10;83.90;;;;;;;;;;5094274;28;20550;-75
2022/06/27 05:54:59;;;;;;;86.63;78.20;;;;;;;;;;5094058;28;20411;-75
2022/06/27 05:57:28;;;;;;;88.70;80.60;;;;;;;;;;5094235;28;20515;-75
2022/06/27 05:59:55;;;;;;;98.57;88.07;;;;;;;;;;5093997;28;20417;-75
2022/06/27 06:02:24;;;;;;;105.43;84.47;;;;;;;;;;5080045;28;20466;-75
2022/06/27 06:04:51;;;;;;;94.60;85.70;;;;;;;;;;5073892;28;20421;-74
2022/06/27 06:07:19;;;;;;;95.23;87.17;;;;;;;;;;5073432;28;20439;-75
2022/06/27 06:09:46;;;;;;;93.80;84.70;;;;;;;;;;5073786;28;20417;-75
2022/06/27 06:12:14;;;;;;;93.13;84.40;;;;;;;;;;5074030;28;20499;-75
2022/06/27 06:14:43;;;;;;;89.30;81.40;;;;;;;;;;5073786;28;20500;-75
2022/06/27 06:17:12;;;;;;;91.23;82.00;;;;;;;;;;5073592;28;20451;-75
2022/06/27 06:19:39;;;;;;;93.10;84.00;;;;;;;;;;5073461;28;20428;-76
2022/06/27 06:22:08;;;;;;;87.20;78.40;;;;;;;;;;5073281;28;20413;-76
2022/06/27 06:24:36;;;;;;;86.23;78.03;;;;;;;;;;5073559;28;20439;-76
2022/06/27 06:27:03;;;;;;;81.53;73.20;;;;;;;;;;5073134;28;20443;-76
2022/06/27 06:29:30;;;;;;;85.13;75.47;;;;;;;;;;5073186;28;20430;-76
2022/06/27 06:31:59;;;;;;;84.17;75.40;;;;;;;;;;5073380;28;20449;-76
2022/06/27 06:34:26;;;;;;;88.60;79.90;;;;;;;;;;5073307;28;20412;-76
2022/06/27 06:36:54;;;;;;;90.73;72.23;;;;;;;;;;5073269;28;20801;-76
2022/06/27 06:39:21;;;;;;;80.70;71.80;;;;;;;;;;5073163;28;20527;-76
2022/06/27 06:41:48;;;;;;;80.20;71.93;;;;;;;;;;5073274;28;20433;-75
2022/06/27 06:44:17;;;;;;;83.83;75.23;;;;;;;;;;5073053;28;20463;-76
2022/06/27 06:46:44;;;;;;;85.90;77.50;;;;;;;;;;5072863;28;20442;-76
2022/06/27 06:49:13;;;;;;;77.20;69.30;;;;;;;;;;5073096;28;20420;-76
2022/06/27 06:51:42;;;;;;;82.80;75.27;;;;;;;;;;5072781;28;20525;-76
2022/06/27 06:54:12;;;;;;;84.20;76.20;;;;;;;;;;5073395;28;20415;-76
2022/06/27 06:56:40;;;;;;;75.90;68.63;;;;;;;;;;5073012;28;20462;-76
2022/06/27 06:59:07;;;;;;;78.63;70.83;;;;;;;;;;5072964;28;20417;-75
2022/06/27 07:01:35;;;;;;;86.97;78.83;;;;;;;;;;5072731;28;20415;-76
2022/06/27 07:04:02;;;;;;;85.33;76.30;;;;;;;;;;5073024;28;20580;-76
2022/06/27 07:06:32;;;;;;;90.73;77.90;;;;;;;;;;5072554;28;20786;-75
2022/06/27 07:09:00;;;;;;;87.80;78.07;;;;;;;;;;5072507;28;20532;-75
2022/06/27 07:11:29;;;;;;;86.63;78.20;;;;;;;;;;5072666;28;20413;-75
2022/06/27 07:13:57;;;;;;;90.40;80.03;;;;;;;;;;5072856;28;20549;-75
2022/06/27 07:16:25;;;;;;;87.57;78.90;;;;;;;;;;5072913;28;20451;-75
2022/06/27 07:18:54;;;;;;;91.20;82.23;;;;;;;;;;5072430;28;20774;-75
2022/06/27 07:21:22;;;;;;;87.67;78.10;;;;;;;;;;5072900;28;20401;-75
2022/06/27 07:23:51;;;;;;;90.03;80.90;;;;;;;;;;5072578;28;20417;-75
2022/06/27 07:26:20;;;;;;;96.20;80.77;;;;;;;;;;5075117;28;20416;-75
2022/06/27 07:28:48;;;;;;;88.07;79.37;;;;;;;;;;5072396;28;20422;-75
2022/06/27 07:31:16;;;;;;;87.73;78.17;;;;;;;;;;5072724;28;20442;-75
2022/06/27 07:33:44;;;;;;;86.17;77.60;;;;;;;;;;5072878;28;20452;-75
2022/06/27 07:36:14;;;;;;;90.20;80.77;;;;;;;;;;5072650;28;20520;-75
2022/06/27 07:38:42;;;;;;;84.83;76.47;;;;;;;;;;5072421;28;20410;-75
2022/06/27 07:41:13;;;;;;;87.83;78.80;;;;;;;;;;5072313;28;20437;-75
2022/06/27 07:43:41;;;;;;;94.30;85.47;;;;;;;;;;5072247;28;20906;-74
2022/06/27 07:46:08;;;;;;;89.57;80.87;;;;;;;;;;5072303;28;20434;-75
2022/06/27 07:48:36;;;;;;;90.47;81.00;;;;;;;;;;5076112;28;20446;-75
2022/06/27 07:51:03;;;;;;;87.40;78.87;;;;;;;;;;5076309;28;20945;-76
2022/06/27 07:53:30;;;;;;;92.53;83.17;;;;;;;;;;5076159;28;21003;-75
2022/06/27 07:55:59;;;;;;;100.50;88.23;;;;;;;;;;5076509;28;20413;-75
2022/06/27 07:58:33;;;;;;;94.20;84.33;;;;;;;;;;5076170;28;20438;-77
2022/06/27 08:01:01;;;;;;;91.20;81.83;;;;;;;;;;5076316;28;20456;-76
2022/06/27 08:03:40;;;;;;;97.23;86.77;;;;;;;;;;5076304;28;20409;-76
2022/06/27 08:06:08;;;;;;;93.17;84.03;;;;;;;;;;5075964;28;20470;-76
2022/06/27 08:08:37;;;;;;;100.07;84.03;;;;;;;;;;5075947;28;20470;-76
2022/06/27 08:11:07;;;;;;;88.97;79.87;;;;;;;;;;5075905;28;20969;-76
2022/06/27 08:13:37;;;;;;;99.00;84.50;;;;;;;;;;5075809;28;20461;-76
2022/06/27 08:16:05;;;;;;;91.80;82.90;;;;;;;;;;5075955;28;20422;-76
2022/06/27 08:18:33;;;;;;;93.17;79.73;;;;;;;;;;5075617;28;20429;-76
2022/06/27 08:21:00;;;;;;;87.17;78.40;;;;;;;;;;5075648;28;20898;-76
2022/06/27 08:23:28;;;;;;;91.13;81.20;;;;;;;;;;5075618;28;20425;-75
2022/06/27 08:25:56;;;;;;;81.93;73.83;;;;;;;;;;5075575;28;20899;-76
2022/06/27 08:28:26;;;;;;;82.10;75.00;;;;;;;;;;5075885;28;20421;-76
2022/06/27 08:30:56;;;;;;;83.90;76.00;;;;;;;;;;5075791;28;20417;-76
2022/06/27 08:33:24;;;;;;;74.60;68.03;;;;;;;;;;5075606;28;20454;-76
2022/06/27 08:35:52;;;;;;;76.57;69.90;;;;;;;;;;5075409;28;20970;-76
2022/06/27 08:38:20;;;;;;;74.83;68.10;;;;;;;;;;5075507;28;20425;-76
2022/06/27 08:40:50;;;;;;;71.30;64.80;;;;;;;;;;5075341;28;20977;-76
2022/06/27 08:43:18;;;;;;;69.07;62.77;;;;;;;;;;5075077;28;20817;-75
2022/06/27 08:45:47;;;;;;;69.83;63.97;;;;;;;;;;5075176;28;21005;-76
2022/06/27 08:48:16;;;;;;;69.90;63.80;;;;;;;;;;5075044;28;20406;-76
2022/06/27 08:50:45;;;;;;;64.80;59.40;;;;;;;;;;5075409;28;20409;-76
2022/06/27 08:53:13;;;;;;;63.90;58.70;;;;;;;;;;5074937;28;20987;-76
2022/06/27 08:55:44;;;;;;;64.50;59.50;;;;;;;;;;5075378;28;20904;-76
2022/06/27 08:58:12;;;;;;;63.60;58.70;;;;;;;;;;5074273;28;20444;-75
2022/06/27 09:00:41;;;;;;;63.07;57.70;;;;;;;;;;5074571;28;20408;-76
2022/06/27 09:03:10;;;;;;;62.97;58.17;;;;;;;;;;5075205;28;20448;-76
2022/06/27 09:05:39;;;;;;;60.17;55.57;;;;;;;;;;5074762;28;20440;-76
2022/06/27 09:08:08;;;;;;;62.17;56.97;;;;;;;;;;5074465;28;20872;-76
2022/06/27 09:10:37;;;;;;;64.90;59.60;;;;;;;;;;5074779;28;20409;-76
2022/06/27 09:13:05;;;;;;;63.70;58.40;;;;;;;;;;5074892;28;20449;-76
2022/06/27 09:15:46;;;;;;;61.27;56.17;;;;;;;;;;5074637;28;20416;-77
2022/06/27 09:18:14;;;;;;;59.77;54.87;;;;;;;;;;5074985;28;20522;-77
2022/06/27 09:20:51;;;;;;;59.30;54.60;;;;;;;;;;5074837;28;20448;-76
2022/06/27 09:23:28;;;;;;;58.23;53.70;;;;;;;;;;5074530;28;20822;-76
2022/06/27 09:26:00;;;;;;;57.93;53.60;;;;;;;;;;5074486;28;20882;-77
2022/06/27 09:28:39;;;;;;;56.60;52.20;;;;;;;;;;5074978;28;20430;-77
2022/06/27 09:31:09;;;;;;;56.40;52.17;;;;;;;;;;5074022;28;20481;-77
2022/06/27 09:33:38;;;;;;;56.90;52.50;;;;;;;;;;5074580;28;20462;-79
2022/06/27 09:36:16;;;;;;;52.97;48.83;;;;;;;;;;5074688;28;20442;-76
2022/06/27 09:38:44;;;;;;;53.13;48.73;;;;;;;;;;5074396;28;20436;-77
2022/06/27 09:41:13;;;;;;;52.40;48.27;;;;;;;;;;5074349;28;20446;-78
2022/06/27 09:43:42;;;;;;;53.90;49.50;;;;;;;;;;5073965;28;20506;-75
2022/06/27 09:46:10;;;;;;;54.33;49.80;;;;;;;;;;5074356;28;20413;-77
2022/06/27 09:48:39;;;;;;;52.87;48.67;;;;;;;;;;5074162;28;20920;-77
2022/06/27 09:51:06;;;;;;;54.63;50.33;;;;;;;;;;5088822;28;20965;-77
2022/06/27 09:53:36;;;;;;;51.23;47.33;;;;;;;;;;5094015;28;20473;-81
2022/06/27 09:56:05;;;;;;;53.57;49.37;;;;;;;;;;5094425;28;20469;-78
2022/06/27 09:58:33;;;;;;;52.63;48.73;;;;;;;;;;5076465;28;20457;-78
2022/06/27 10:01:00;;;;;;;49.07;45.27;;;;;;;;;;5093999;28;20922;-77
2022/06/27 10:03:31;;;;;;;50.07;46.23;;;;;;;;;;5094294;28;20431;-79
2022/06/27 10:05:59;;;;;;;53.00;48.93;;;;;;;;;;5093832;28;20919;-79
2022/06/27 10:08:26;;;;;;;54.00;49.80;;;;;;;;;;5094111;28;20444;-78
2022/06/27 10:11:08;;;;;;;51.97;48.17;;;;;;;;;;5093680;28;20425;-78
2022/06/27 10:13:37;;;;;;;52.57;48.77;;;;;;;;;;5094184;28;20484;-79
2022/06/27 10:16:12;;;;;;;53.50;49.50;;;;;;;;;;5093964;28;20830;-78
2022/06/27 10:18:59;;;;;;;52.23;48.40;;;;;;;;;;5093609;28;20494;-79
2022/06/27 10:21:28;;;;;;;51.03;47.03;;;;;;;;;;5093723;28;20445;-79
2022/06/27 10:24:14;;;;;;;49.77;45.77;;;;;;;;;;5093555;28;20428;-79
2022/06/27 10:26:43;;;;;;;51.93;48.03;;;;;;;;;;5093840;28;20438;-79
2022/06/27 10:29:29;;;;;;;48.77;44.77;;;;;;;;;;5093454;28;20893;-79
2022/06/27 10:31:56;;;;;;;51.77;47.13;;;;;;;;;;5093751;28;20412;-79
2022/06/27 10:34:54;;;;;;;48.73;44.70;;;;;;;;;;5093277;28;20456;-79
2022/06/27 10:37:37;;;;;;;47.97;44.13;;;;;;;;;;5093007;28;20435;-77
2022/06/27 10:40:24;;;;;;;49.80;45.97;;;;;;;;;;5093372;28;20407;-79
2022/06/27 10:42:54;;;;;;;48.73;44.73;;;;;;;;;;5082640;28;20431;-79
2022/06/27 10:45:24;;;;;;;45.33;41.63;;;;;;;;;;5084107;28;20418;-79
2022/06/27 10:47:52;;;;;;;45.43;41.83;;;;;;;;;;5080858;28;20452;-78
2022/06/27 10:50:22;;;;;;;50.23;46.13;;;;;;;;;;5073117;28;20464;-78
2022/06/27 10:52:51;;;;;;;46.20;42.53;;;;;;;;;;5072468;28;20438;-78
2022/06/27 10:55:23;;;;;;;50.87;46.53;;;;;;;;;;5073015;28;20446;-79
2022/06/27 10:57:50;;;;;;;50.70;46.07;;;;;;;;;;5072810;28;20428;-79
2022/06/27 11:00:35;;;;;;;50.90;46.27;;;;;;;;;;5072600;28;20918;-79
2022/06/27 11:03:04;;;;;;;54.93;50.07;;;;;;;;;;5062464;28;20455;-79
2022/06/27 11:05:32;;;;;;;50.33;45.43;;;;;;;;;;5072274;28;20496;-79
2022/06/27 11:07:59;;;;;;;53.07;47.50;;;;;;;;;;5072119;28;20470;-79
2022/06/27 11:10:27;;;;;;;50.97;46.30;;;;;;;;;;5072791;28;20435;-79
2022/06/27 11:12:54;;;;;;;51.30;46.20;;;;;;;;;;5072325;28;20927;-79
2022/06/27 11:15:23;;;;;;;48.80;44.33;;;;;;;;;;5072367;28;20435;-79
2022/06/27 11:17:50;;;;;;;49.30;44.70;;;;;;;;;;5072362;28;20533;-81
2022/06/27 11:20:25;;;;;;;49.83;44.70;;;;;;;;;;5072709;28;20782;-80
2022/06/27 11:22:53;;;;;;;45.67;41.30;;;;;;;;;;5071898;28;20438;-80
2022/06/27 11:25:22;;;;;;;45.27;41.23;;;;;;;;;;5072562;28;20436;-77
2022/06/27 11:27:51;;;;;;;45.67;41.37;;;;;;;;;;5072796;28;20792;-78
2022/06/27 11:33:17;;;;;;;45.80;41.73;;;;;;;;;;5072491;28;20519;-78
2022/06/27 11:35:47;;;;;;;49.47;44.90;;;;;;;;;;5071440;28;20850;-84
2022/06/27 11:38:20;;;;;;;52.53;46.87;;;;;;;;;;5073032;28;20458;-81
2022/06/27 11:40:59;;;;;;;52.57;47.60;;;;;;;;;;5073280;28;20420;-84
2022/06/27 11:43:42;;;;;;;55.23;49.43;;;;;;;;;;5073649;28;20460;-83
2022/06/27 11:46:09;;;;;;;49.27;44.63;;;;;;;;;;5072610;28;20474;-82
2022/06/27 11:48:36;;;;;;;43.80;39.60;;;;;;;;;;5072596;28;20511;-83
2022/06/27 11:51:20;;;;;;;46.73;42.20;;;;;;;;;;5073577;28;20924;-83
2022/06/27 11:53:54;;;;;;;45.90;41.50;;;;;;;;;;5073001;28;20461;-84
2022/06/27 11:56:22;;;;;;;44.53;40.30;;;;;;;;;;5072842;28;20804;-84
2022/06/27 11:58:50;;;;;;;44.80;40.80;;;;;;;;;;5072838;28;20442;-83
2022/06/27 12:01:17;;;;;;;42.43;38.73;;;;;;;;;;5073281;28;20422;-82
2022/06/27 12:04:00;;;;;;;44.17;40.00;;;;;;;;;;5075410;28;20411;-83
2022/06/27 12:06:31;;;;;;;42.87;39.07;;;;;;;;;;5073099;28;20424;-86
2022/06/27 12:09:02;;;;;;;45.37;41.17;;;;;;;;;;5071965;28;20474;-76
2022/06/27 12:11:30;;;;;;;45.00;40.50;;;;;;;;;;5073118;28;20440;-76
2022/06/27 12:14:00;;;;;;;45.37;41.00;;;;;;;;;;5073249;28;20802;-76
2022/06/27 12:16:28;;;;;;;45.97;41.20;;;;;;;;;;5072869;28;20503;-76
2022/06/27 12:18:55;;;;;;;47.60;42.50;;;;;;;;;;5073006;28;20441;-76
2022/06/27 12:21:23;;;;;;;46.43;41.57;;;;;;;;;;5073062;28;20529;-77
2022/06/27 12:23:52;;;;;;;47.50;42.57;;;;;;;;;;5072506;28;20473;-76
2022/06/27 12:26:19;;;;;;;49.87;44.47;;;;;;;;;;5072812;28;20409;-76
2022/06/27 12:28:50;;;;;;;50.53;45.23;;;;;;;;;;5073156;28;20512;-77
2022/06/27 12:31:17;;;;;;;45.57;41.17;;;;;;;;;;5073391;28;20908;-76
2022/06/27 12:33:45;;;;;;;48.50;43.57;;;;;;;;;;5074697;28;20455;-76
2022/06/27 12:36:14;;;;;;;49.30;44.50;;;;;;;;;;5074794;28;20524;-76
2022/06/27 12:38:42;;;;;;;51.47;46.27;;;;;;;;;;5075840;28;20748;-76
2022/06/27 12:41:14;;;;;;;48.00;43.53;;;;;;;;;;5075589;28;20773;-76
2022/06/27 12:43:42;;;;;;;49.03;44.13;;;;;;;;;;5075790;28;20463;-76
2022/06/27 12:46:10;;;;;;;51.57;45.43;;;;;;;;;;5075939;28;20420;-75
2022/06/27 12:48:38;;;;;;;50.33;45.30;;;;;;;;;;5076400;28;20409;-74
2022/06/27 12:51:05;;;;;;;47.10;42.50;;;;;;;;;;5076500;28;20433;-76
2022/06/27 12:53:33;;;;;;;47.70;43.10;;;;;;;;;;5075368;28;20442;-76
2022/06/27 12:56:01;;;;;;;49.13;44.73;;;;;;;;;;5075586;28;20446;-76
2022/06/27 12:58:30;;;;;;;49.67;44.67;;;;;;;;;;5076478;28;20450;-76
2022/06/27 13:00:57;;;;;;;51.50;46.60;;;;;;;;;;5076049;28;20413;-76
2022/06/27 13:03:25;;;;;;;49.47;44.67;;;;;;;;;;5075909;28;20470;-76
2022/06/27 13:05:53;;;;;;;51.77;46.67;;;;;;;;;;5075887;28;20416;-75
2022/06/27 13:08:20;;;;;;;49.87;44.70;;;;;;;;;;5074985;28;20478;-78
2022/06/27 13:10:48;;;;;;;52.50;47.10;;;;;;;;;;5075827;28;20417;-76
2022/06/27 13:13:15;;;;;;;52.70;47.80;;;;;;;;;;5075342;28;20409;-77
2022/06/27 13:15:46;;;;;;;52.27;46.93;;;;;;;;;;5075191;28;20456;-81
2022/06/27 13:18:14;;;;;;;55.80;49.73;;;;;;;;;;5073507;28;20492;-75
2022/06/27 13:20:42;;;;;;;55.83;49.70;;;;;;;;;;5074974;28;20484;-75
2022/06/27 13:23:10;;;;;;;54.60;49.10;;;;;;;;;;5075181;28;20435;-75
2022/06/27 13:25:38;;;;;;;57.40;51.23;;;;;;;;;;5075049;28;20417;-75
2022/06/27 13:28:06;;;;;;;58.80;52.93;;;;;;;;;;5075420;28;20438;-75
2022/06/27 13:30:34;;;;;;;60.40;54.00;;;;;;;;;;5075051;28;20402;-75
2022/06/27 13:33:04;;;;;;;57.40;51.60;;;;;;;;;;5075353;28;20405;-74
2022/06/27 13:35:32;;;;;;;58.97;52.90;;;;;;;;;;5075200;28;20525;-76
2022/06/27 13:38:00;;;;;;;65.90;57.87;;;;;;;;;;5074799;28;20431;-76
2022/06/27 13:40:28;;;;;;;60.47;54.00;;;;;;;;;;5075333;28;20406;-75
2022/06/27 13:42:56;;;;;;;65.30;56.30;;;;;;;;;;5074529;28;20464;-74
2022/06/27 13:45:25;;;;;;;57.87;52.07;;;;;;;;;;5073823;28;20964;-76
2022/06/27 13:47:53;;;;;;;59.90;53.83;;;;;;;;;;5075392;28;20408;-75
2022/06/27 13:50:22;;;;;;;63.33;56.77;;;;;;;;;;5076180;28;21101;-75
2022/06/27 13:52:49;;;;;;;61.37;54.80;;;;;;;;;;5074536;28;20443;-76
2022/06/27 13:55:16;;;;;;;61.03;55.13;;;;;;;;;;5075063;28;20483;-76
2022/06/27 13:57:51;;;;;;;60.73;54.43;;;;;;;;;;5075259;28;20530;-75
2022/06/27 14:00:20;;;;;;;58.97;53.17;;;;;;;;;;5074887;28;20424;-76
2022/06/27 14:02:47;;;;;;;58.37;52.67;;;;;;;;;;5075662;28;20477;-76
2022/06/27 14:05:17;;;;;;;62.37;56.17;;;;;;;;;;5075427;28;20801;-76
2022/06/27 14:07:45;;;;;;;58.70;53.17;;;;;;;;;;5077100;28;20966;-77
2022/06/27 14:10:15;;;;;;;57.57;51.63;;;;;;;;;;5075661;28;20411;-76
2022/06/27 14:12:43;;;;;;;61.43;55.23;;;;;;;;;;5074558;28;20432;-75
2022/06/27 14:15:10;;;;;;;59.30;53.40;;;;;;;;;;5074773;28;20478;-76
2022/06/27 14:17:38;;;;;;;59.77;53.80;;;;;;;;;;5074666;28;20915;-76
2022/06/27 14:20:06;;;;;;;56.70;51.30;;;;;;;;;;5074168;28;20409;-77
2022/06/27 14:22:33;;;;;;;55.63;50.10;;;;;;;;;;5074185;28;20450;-78
2022/06/27 14:25:03;;;;;;;54.73;49.30;;;;;;;;;;5074961;28;20523;-76
2022/06/27 14:27:30;;;;;;;55.37;50.30;;;;;;;;;;5074465;28;20425;-77
2022/06/27 14:29:58;;;;;;;54.27;49.13;;;;;;;;;;5074173;28;20950;-76
2022/06/27 14:32:25;;;;;;;51.77;47.00;;;;;;;;;;5074240;28;20492;-80